Aviation Digital Data Service (ADDS)

Output produced by METARs form (0258 UTC 05 May 2016)
found at http://www.aviationweather.gov/adds/metars/
 
KLNS 050253Z 07006KT 10SM OVC015 09/08 A2972 RMK AO2 SLP065 T00940078 50003
KLNS 050058Z 0501/0524 10007KT 2SM BR BKN004 OVC015 
     FM051600 04008KT 4SM BR OVC010 
     FM051900 03005KT P6SM -SHRA OVC025